To NAV CANADA Home Page Login to a new session Search on AWWS site Feedback and Comments Disclaimer Vers la page française équivalente Tips FAQ What's new on the site To the Forecasts and Observations / NOTAM section To "File a Flight Plan" website Publications and other links Update of the User's profile FIC Telephone Numbers My Weather Data Folder Route Weather Data Regional Weather Data Local Weather Data To the Forecasts and Observations / NOTAM section
Request Generated 04/30/2017 at 20:32:39 UTC . Weather information available at that time is displayed.

METAR/TAF

SAINT JOHN/NB    

METAR CYSJ 302000Z 26008KT 230V330 15SM BKN210 12/M03 A3017 RMK CI6
SLP223=
METAR CYSJ 301900Z 32010G17KT 15SM BKN240 13/M05 A3017 RMK CI6
SLP223=
METAR CYSJ 301800Z 32008G16KT 270V020 15SM SCT240 13/M04 A3019 RMK
CI4 SLP228=

TAF CYSJ 301738Z 3018/0106 32010KT P6SM SKC
FM302100 35005KT P6SM BKN180
BECMG 3022/3024 02005KT
FM010500 VRB03KT P6SM BKN180
RMK NXT FCST BY 010000Z=
Your time UTC time
Weather data provided by Environment Canada and NAV CANADA